Time;durP1;ratioP1;P1;durP2;ratioP2;P2;SDS_P1;SDS_P2;PMS_P1;PMS_P2;Temp;Humidity;BMP_temperature;BMP_pressure;BME280_temperature;BME280_humidity;BME280_pressure;Samples;Min_cycle;Max_cycle;Signal;HPM_P1;HPM_P2
2023/05/27 00:00:25;;;;;;;;;;;;;;;21.83;51.44;102382.63;5002139;28;4134;-64
2023/05/27 00:02:52;;;;;;;;;;;;;;;21.82;51.28;102384.03;5005768;28;4055;-65
2023/05/27 00:05:18;;;;;;;;;;;;;;;21.82;51.10;102384.78;5005117;28;4183;-65
2023/05/27 00:07:45;;;;;;;;;;;;;;;21.82;51.29;102375.38;4997819;28;4114;-65
2023/05/27 00:10:11;;;;;;;;;;;;;;;21.81;51.43;102380.38;5000452;28;4357;-64
2023/05/27 00:12:38;;;;;;;;;;;;;;;21.84;51.35;102381.28;5001075;28;3998;-65
2023/05/27 00:15:04;;;;;;;;;;;;;;;21.84;51.41;102375.50;5001416;28;4052;-64
2023/05/27 00:17:31;;;;;;;;;;;;;;;21.81;51.59;102379.66;5001936;28;4141;-64
2023/05/27 00:20:04;;;;;;;;;;;;;;;21.79;51.62;102379.50;5000459;28;4103;-65
2023/05/27 00:22:32;;;;;;;;;;;;;;;21.81;51.66;102376.75;5001341;28;4028;-65
2023/05/27 00:24:58;;;;;;;;;;;;;;;21.80;51.91;102381.00;4998131;28;5200;-64
2023/05/27 00:27:25;;;;;;;;;;;;;;;21.79;51.75;102379.50;5001753;28;4129;-65
2023/05/27 00:29:51;;;;;;;;;;;;;;;21.79;51.78;102385.28;4998414;28;4073;-65
2023/05/27 00:32:18;;;;;;;;;;;;;;;21.78;51.72;102383.75;5002737;28;4064;-65
2023/05/27 00:34:44;;;;;;;;;;;;;;;21.79;51.59;102379.50;5003735;28;4256;-66
2023/05/27 00:37:11;;;;;;;;;;;;;;;21.78;51.51;102381.63;5001425;28;3997;-65
2023/05/27 00:39:37;;;;;;;;;;;;;;;21.79;51.62;102379.50;5007223;28;4209;-65
2023/05/27 00:42:03;;;;;;;;;;;;;;;21.78;51.57;102383.75;5006002;28;4163;-65
2023/05/27 00:44:30;;;;;;;;;;;;;;;21.78;51.48;102384.50;5006767;28;4127;-65
2023/05/27 00:46:56;;;;;;;;;;;;;;;21.77;51.44;102388.78;4999196;28;4344;-65
2023/05/27 00:49:25;;;;;;;;;;;;;;;21.78;51.30;102380.88;5003078;28;4066;-65
2023/05/27 00:51:51;;;;;;;;;;;;;;;21.78;51.44;102380.88;5000908;28;4974;-66
2023/05/27 00:54:18;;;;;;;;;;;;;;;21.78;51.46;102383.75;5005584;28;4055;-65
2023/05/27 00:56:44;;;;;;;;;;;;;;;21.77;51.53;102385.13;5001546;28;4121;-65
2023/05/27 00:59:11;;;;;;;;;;;;;;;21.76;51.44;102378.59;5004119;28;4046;-65
2023/05/27 01:01:38;;;;;;;;;;;;;;;21.75;51.42;102380.72;5006431;28;4321;-65
2023/05/27 01:04:05;;;;;;;;;;;;;;;21.76;51.49;102375.72;5006777;28;4256;-65
2023/05/27 01:06:40;;;;;;;;;;;;;;;21.75;51.18;102374.97;4988368;28;3979;-65
2023/05/27 01:09:25;;;;;;;;;;;;;;;21.74;51.00;102379.25;5004657;28;5315;-65
2023/05/27 01:12:04;;;;;;;;;;;;;;;21.73;51.45;102377.72;5002296;28;4447;-66
2023/05/27 01:14:30;;;;;;;;;;;;;;;21.71;51.56;102374.69;4989891;28;4159;-65
2023/05/27 01:16:57;;;;;;;;;;;;;;;21.72;51.59;102378.34;4995302;28;4218;-65
2023/05/27 01:19:27;;;;;;;;;;;;;;;21.72;51.38;102373.34;5000666;28;3937;-65
2023/05/27 01:21:53;;;;;;;;;;;;;;;21.73;51.38;102376.97;5007618;28;4178;-65
2023/05/27 01:24:20;;;;;;;;;;;;;;;21.71;51.15;102373.94;4999484;28;4058;-65
2023/05/27 01:26:46;;;;;;;;;;;;;;;21.72;51.14;102387.00;4998435;28;4270;-65
2023/05/27 01:29:13;;;;;;;;;;;;;;;21.70;51.34;102376.09;5010831;28;4219;-65
2023/05/27 01:31:43;;;;;;;;;;;;;;;21.70;51.47;102373.19;5003735;28;4119;-65
2023/05/27 01:34:09;;;;;;;;;;;;;;;21.69;51.13;102374.59;5010579;28;4192;-65
2023/05/27 01:36:44;;;;;;;;;;;;;;;21.69;51.26;102377.47;5005456;28;4135;-65
2023/05/27 01:39:11;;;;;;;;;;;;;;;21.69;51.41;102374.59;4994235;28;4138;-65
2023/05/27 01:41:38;;;;;;;;;;;;;;;21.68;51.09;102375.94;5001480;28;4111;-65
2023/05/27 01:44:04;;;;;;;;;;;;;;;21.68;51.17;102370.19;5002977;28;6526;-65
2023/05/27 01:46:32;;;;;;;;;;;;;;;21.67;51.12;102365.03;5005310;28;4102;-65
2023/05/27 01:48:58;;;;;;;;;;;;;;;21.66;51.39;102360.66;5002945;28;4205;-63
2023/05/27 01:51:25;;;;;;;;;;;;;;;21.66;51.31;102360.66;5008832;28;4381;-63
2023/05/27 01:53:51;;;;;;;;;;;;;;;21.66;51.12;102366.41;5017506;28;3931;-66
2023/05/27 01:56:18;;;;;;;;;;;;;;;21.65;51.25;102359.16;5022605;28;4257;-65
2023/05/27 01:58:44;;;;;;;;;;;;;;;21.64;51.09;102358.38;5008684;28;4270;-65
2023/05/27 02:01:12;;;;;;;;;;;;;;;21.64;50.98;102358.38;5004109;28;4234;-65
2023/05/27 02:03:39;;;;;;;;;;;;;;;21.63;51.10;102362.66;5007585;28;4152;-65
2023/05/27 02:06:05;;;;;;;;;;;;;;;21.63;51.19;102361.91;5001486;28;4231;-65
2023/05/27 02:08:33;;;;;;;;;;;;;;;21.61;51.19;102348.09;5015129;28;4034;-65
2023/05/27 02:11:00;;;;;;;;;;;;;;;21.61;51.28;102351.00;4996644;28;4098;-65
2023/05/27 02:13:26;;;;;;;;;;;;;;;21.62;50.91;102355.38;5001557;28;3953;-65
2023/05/27 02:15:53;;;;;;;;;;;;;;;21.61;51.28;102358.88;5002692;28;4497;-65
2023/05/27 02:18:20;;;;;;;;;;;;;;;21.59;51.07;102350.84;5008261;28;4378;-65
2023/05/27 02:20:47;;;;;;;;;;;;;;;21.60;50.96;102352.38;5020501;28;4032;-65
2023/05/27 02:23:13;;;;;;;;;;;;;;;21.59;51.21;102359.50;5003006;28;4432;-65
2023/05/27 02:25:40;;;;;;;;;;;;;;;21.59;51.23;102353.75;5006751;28;4796;-65
2023/05/27 02:28:06;;;;;;;;;;;;;;;21.59;50.92;102345.09;5006305;28;4163;-65
2023/05/27 02:30:33;;;;;;;;;;;;;;;21.59;51.09;102347.97;5012064;28;4225;-65
2023/05/27 02:32:59;;;;;;;;;;;;;;;21.58;51.25;102355.13;5001129;28;4231;-65
2023/05/27 02:35:26;;;;;;;;;;;;;;;21.58;50.92;102355.13;5002581;28;4550;-65
2023/05/27 02:37:52;;;;;;;;;;;;;;;21.58;50.88;102349.38;4998527;28;4331;-65
2023/05/27 02:40:26;;;;;;;;;;;;;;;21.57;50.80;102353.59;5009864;28;4232;-65
2023/05/27 02:42:55;;;;;;;;;;;;;;;21.57;50.88;102352.84;5008547;28;4047;-66
2023/05/27 02:45:21;;;;;;;;;;;;;;;21.57;51.14;102359.38;4999993;28;4128;-65
2023/05/27 02:47:49;;;;;;;;;;;;;;;21.57;50.81;102362.25;5003955;28;4049;-65
2023/05/27 02:50:16;;;;;;;;;;;;;;;21.57;51.11;102359.38;5002584;28;4484;-65
2023/05/27 02:52:42;;;;;;;;;;;;;;;21.56;51.07;102360.75;5009330;28;4110;-65
2023/05/27 02:55:09;;;;;;;;;;;;;;;21.56;50.93;102363.63;5006330;28;4052;-65
2023/05/27 02:57:35;;;;;;;;;;;;;;;21.56;51.01;102363.63;5003787;28;4076;-65
2023/05/27 03:00:03;;;;;;;;;;;;;;;21.54;50.93;102367.13;5012114;28;4043;-65
2023/05/27 03:02:30;;;;;;;;;;;;;;;21.53;51.05;102365.63;4997253;28;4078;-65
2023/05/27 03:04:57;;;;;;;;;;;;;;;21.55;51.02;102370.75;5003426;28;4084;-66
2023/05/27 03:07:23;;;;;;;;;;;;;;;21.53;50.85;102370.63;5002669;28;4198;-65
2023/05/27 03:09:50;;;;;;;;;;;;;;;21.53;51.11;102376.38;5000050;28;4193;-65
2023/05/27 03:12:16;;;;;;;;;;;;;;;21.52;51.11;102369.13;5010582;28;5499;-66
2023/05/27 03:14:42;;;;;;;;;;;;;;;21.50;50.84;102372.63;5003808;28;4115;-65
2023/05/27 03:17:09;;;;;;;;;;;;;;;21.50;51.03;102374.75;4999843;28;4021;-65
2023/05/27 03:19:35;;;;;;;;;;;;;;;21.50;50.93;102371.88;5003764;28;4170;-65
2023/05/27 03:22:02;;;;;;;;;;;;;;;21.52;50.82;102372.00;4996250;28;4173;-64
2023/05/27 03:24:29;;;;;;;;;;;;;;;21.49;50.88;102365.38;5005193;28;4239;-64
2023/05/27 03:26:55;;;;;;;;;;;;;;;21.50;50.88;102371.88;4998145;28;4188;-64
2023/05/27 03:29:23;;;;;;;;;;;;;;;21.48;50.79;102363.09;5009807;28;4269;-65
2023/05/27 03:31:49;;;;;;;;;;;;;;;21.49;50.97;102353.09;5005170;28;4473;-64
2023/05/27 03:34:18;;;;;;;;;;;;;;;21.49;50.83;102353.84;5005954;28;4529;-64
2023/05/27 03:36:46;;;;;;;;;;;;;;;21.49;50.73;102353.84;5003548;28;4046;-65
2023/05/27 03:39:14;;;;;;;;;;;;;;;21.48;50.62;102365.97;5017453;28;4144;-65
2023/05/27 03:41:47;;;;;;;;;;;;;;;21.48;50.96;102363.09;5010164;28;4240;-65
2023/05/27 03:44:13;;;;;;;;;;;;;;;21.48;50.97;102357.34;4999586;28;4146;-64
2023/05/27 03:46:40;;;;;;;;;;;;;;;21.47;50.75;102367.38;5007919;28;4019;-65
2023/05/27 03:49:06;;;;;;;;;;;;;;;21.48;50.70;102368.84;5000845;28;4536;-65
2023/05/27 03:51:33;;;;;;;;;;;;;;;21.45;50.98;102375.88;5006186;28;4063;-65
2023/05/27 03:54:00;;;;;;;;;;;;;;;21.47;50.69;102376.00;4997009;28;4205;-65
2023/05/27 03:56:28;;;;;;;;;;;;;;;21.46;50.72;102371.59;5007968;28;4138;-64
2023/05/27 03:58:56;;;;;;;;;;;;;;;21.44;50.65;102374.34;4999297;28;4242;-65
2023/05/27 04:01:22;;;;;;;;;;;;;;;21.44;50.74;102375.13;5006140;28;4055;-65
2023/05/27 04:03:49;;;;;;;;;;;;;;;21.45;50.62;102381.63;5001607;28;4480;-65
2023/05/27 04:06:15;;;;;;;;;;;;;;;21.43;50.91;102379.38;5004200;28;4112;-64
2023/05/27 04:08:42;;;;;;;;;;;;;;;21.43;50.77;102379.38;5003560;28;4469;-64
2023/05/27 04:11:10;;;;;;;;;;;;;;;21.43;50.72;102373.59;5009284;28;4101;-65
2023/05/27 04:13:36;;;;;;;;;;;;;;;21.43;50.65;102372.84;4999987;28;4028;-65
2023/05/27 04:16:05;;;;;;;;;;;;;;;21.43;50.78;102387.25;4997210;28;4169;-64
2023/05/27 04:18:31;;;;;;;;;;;;;;;21.43;50.78;102378.63;5000441;28;4194;-65
2023/05/27 04:20:58;;;;;;;;;;;;;;;21.42;50.65;102388.66;5004562;28;4255;-65
2023/05/27 04:23:25;;;;;;;;;;;;;;;21.42;50.65;102388.66;5010792;28;4117;-65
2023/05/27 04:25:52;;;;;;;;;;;;;;;21.41;50.63;102385.00;4999048;28;4170;-65
2023/05/27 04:28:22;;;;;;;;;;;;;;;21.40;50.80;102383.50;5008901;28;4240;-64
2023/05/27 04:30:50;;;;;;;;;;;;;;;21.40;50.81;102391.38;5007489;28;4180;-64
2023/05/27 04:33:33;;;;;;;;;;;;;;;21.40;50.78;102395.03;4999216;28;4166;-65
2023/05/27 04:36:00;;;;;;;;;;;;;;;21.39;50.99;102386.97;5003936;28;4059;-65
2023/05/27 04:38:31;;;;;;;;;;;;;;;21.40;50.90;102385.59;5004613;28;4162;-64
2023/05/27 04:41:02;;;;;;;;;;;;;;;21.40;50.77;102388.47;4999947;28;4037;-65
2023/05/27 04:43:48;;;;;;;;;;;;;;;21.39;50.81;102393.47;5007053;28;4209;-64
2023/05/27 04:46:17;;;;;;;;;;;;;;;21.40;51.02;102397.13;5000086;28;5514;-64
2023/05/27 04:48:46;;;;;;;;;;;;;;;21.39;51.03;102389.84;4998896;28;4044;-64
2023/05/27 04:51:15;;;;;;;;;;;;;;;21.39;50.78;102386.97;5006242;28;4096;-64
2023/05/27 04:53:42;;;;;;;;;;;;;;;21.39;51.20;102384.06;5006992;28;4108;-64
2023/05/27 04:56:09;;;;;;;;;;;;;;;21.38;50.86;102383.31;5005036;28;4180;-64
2023/05/27 04:58:39;;;;;;;;;;;;;;;21.37;50.97;102386.81;4999102;28;4058;-64
2023/05/27 05:01:05;;;;;;;;;;;;;;;21.38;50.88;102376.81;5007037;28;4037;-64
2023/05/27 05:03:50;;;;;;;;;;;;;;;21.37;50.79;102386.81;5002408;28;4266;-64
2023/05/27 05:06:19;;;;;;;;;;;;;;;21.38;50.87;102388.34;5016433;28;4943;-65
2023/05/27 05:08:45;;;;;;;;;;;;;;;21.37;50.90;102386.81;5006720;28;4126;-65
2023/05/27 05:11:12;;;;;;;;;;;;;;;21.36;50.94;102380.31;4999618;28;4048;-64
2023/05/27 05:13:40;;;;;;;;;;;;;;;21.34;50.79;102378.03;5000021;28;4689;-64
2023/05/27 05:16:06;;;;;;;;;;;;;;;21.36;51.15;102382.44;4999437;28;4150;-65
2023/05/27 05:18:33;;;;;;;;;;;;;;;21.34;51.00;102380.91;5007993;28;4896;-64
2023/05/27 05:20:59;;;;;;;;;;;;;;;21.34;51.00;102383.81;5010777;28;4174;-65
2023/05/27 05:23:33;;;;;;;;;;;;;;;21.34;51.19;102386.69;5000432;28;4028;-65
2023/05/27 05:26:06;;;;;;;;;;;;;;;21.34;50.94;102383.06;5001423;28;4112;-65
2023/05/27 05:28:34;;;;;;;;;;;;;;;21.33;51.09;102370.78;5000098;28;4182;-64
2023/05/27 05:31:02;;;;;;;;;;;;;;;21.33;51.19;102376.53;4997361;28;4327;-64
2023/05/27 05:33:28;;;;;;;;;;;;;;;21.34;50.96;102380.16;4998758;28;4039;-65
2023/05/27 05:35:55;;;;;;;;;;;;;;;21.33;50.90;102382.31;5004629;28;5495;-65
2023/05/27 05:38:27;;;;;;;;;;;;;;;21.32;50.95;102383.66;5005662;28;3934;-81
2023/05/27 05:40:54;;;;;;;;;;;;;;;21.32;51.11;102383.66;5007327;28;4225;-70
2023/05/27 05:43:21;;;;;;;;;;;;;;;21.33;51.17;102381.56;5008947;28;4109;-70
2023/05/27 05:45:49;;;;;;;;;;;;;;;21.33;51.00;102385.19;4996435;28;4413;-70
2023/05/27 05:48:18;;;;;;;;;;;;;;;21.31;51.32;102385.06;5007652;28;4023;-74
2023/05/27 05:50:44;;;;;;;;;;;;;;;20.64;49.92;102377.63;5007891;28;4282;-75
2023/05/27 05:53:12;;;;;;;;;;;;;;;20.00;48.54;102376.03;5004295;28;3953;-73
2023/05/27 05:55:39;;;;;;;;;;;;;;;19.86;47.14;102383.63;5010140;28;3948;-72
2023/05/27 05:58:05;;;;;;;;;;;;;;;20.34;46.57;102385.63;5015420;28;4179;-73
2023/05/27 06:00:32;;;;;;;;;;;;;;;20.73;46.38;102385.47;5010239;28;4024;-78
2023/05/27 06:03:18;;;;;;;;;;;;;;;20.97;47.12;102368.34;5003587;28;4229;-71
2023/05/27 06:05:48;;;;;;;;;;;;;;;21.10;46.95;102377.19;5009412;28;4181;-72
2023/05/27 06:08:14;;;;;;;;;;;;;;;20.55;46.44;102375.50;5001515;28;4173;-72
2023/05/27 06:10:46;;;;;;;;;;;;;;;20.17;47.34;102385.81;4999103;28;4296;-70
2023/05/27 06:13:13;;;;;;;;;;;;;;;20.60;46.62;102383.84;5007532;28;4195;-71
2023/05/27 06:15:39;;;;;;;;;;;;;;;20.90;47.02;102388.06;5008822;28;4491;-71
2023/05/27 06:18:08;;;;;;;;;;;;;;;20.97;46.47;102385.63;5008352;28;4140;-71
2023/05/27 06:20:34;;;;;;;;;;;;;;;21.01;46.87;102380.13;5006580;28;3986;-71
2023/05/27 06:23:01;;;;;;;;;;;;;;;21.07;47.20;102389.16;5007991;28;4179;-70
2023/05/27 06:25:47;;;;;;;;;;;;;;;21.10;47.42;102393.72;5004625;28;4657;-70
2023/05/27 06:28:14;;;;;;;;;;;;;;;21.11;47.46;102395.22;5005443;28;4486;-68
2023/05/27 06:30:42;;;;;;;;;;;;;;;20.73;46.15;102396.97;5000862;28;3963;-67
2023/05/27 06:33:10;;;;;;;;;;;;;;;19.94;45.34;102401.44;5008141;28;4485;-69
2023/05/27 06:35:36;;;;;;;;;;;;;;;19.77;45.71;102381.50;5007261;28;4191;-68
2023/05/27 06:38:03;;;;;;;;;;;;;;;19.96;45.62;102398.72;5002979;28;4609;-68
2023/05/27 06:40:30;;;;;;;;;;;;;;;20.03;44.90;102394.94;5000483;28;4212;-70
2023/05/27 06:42:57;;;;;;;;;;;;;;;20.25;44.94;102400.78;5000862;28;5047;-69
2023/05/27 06:45:45;;;;;;;;;;;;;;;20.09;44.50;102388.88;5004093;28;4132;-69
2023/05/27 06:48:37;;;;;;;;;;;;;;;20.45;44.16;102393.56;5021429;28;4479;-69
2023/05/27 06:51:04;;;;;;;;;;;;;;;20.64;44.19;102392.03;5006352;28;4195;-69
2023/05/27 06:53:31;;;;;;;;;;;;;;;20.76;43.99;102395.72;5006048;28;4237;-69
2023/05/27 06:56:04;;;;;;;;;;;;;;;20.82;43.96;102398.25;5017777;28;4009;-69
2023/05/27 06:58:57;;;;;;;;;;;;;;;20.85;44.31;102397.81;5002100;28;4421;-69
2023/05/27 07:01:23;;;;;;;;;;;;;;;20.88;44.46;102395.81;5017498;28;3998;-69
2023/05/27 07:03:59;;;;;;;;;;;;;;;20.89;44.46;102398.09;5016063;28;4042;-69
2023/05/27 07:06:46;;;;;;;;;;;;;;;20.90;44.85;102396.72;5009110;28;4054;-69
2023/05/27 07:09:13;;;;;;;;;;;;;;;20.91;45.05;102395.34;5005841;28;4526;-69
2023/05/27 07:11:40;;;;;;;;;;;;;;;20.92;45.31;102385.31;5011395;28;4357;-69
2023/05/27 07:14:11;;;;;;;;;;;;;;;20.95;45.58;102397.00;5013890;28;4026;-69
2023/05/27 07:16:39;;;;;;;;;;;;;;;20.93;45.82;102392.59;5008455;28;4313;-69
2023/05/27 07:19:07;;;;;;;;;;;;;;;20.95;45.85;102394.09;5012498;28;4184;-69
2023/05/27 07:21:47;;;;;;;;;;;;;;;20.96;45.80;102392.72;5014697;28;4043;-69
2023/05/27 07:24:18;;;;;;;;;;;;;;;20.97;45.91;102388.50;5016184;28;4160;-69
2023/05/27 07:26:45;;;;;;;;;;;;;;;20.97;46.29;102394.25;5008345;28;4127;-69
2023/05/27 07:29:12;;;;;;;;;;;;;;;20.98;46.38;102390.00;5013250;28;4168;-69
2023/05/27 07:31:57;;;;;;;;;;;;;;;20.99;46.44;102388.63;5002806;28;4170;-68
2023/05/27 07:34:27;;;;;;;;;;;;;;;21.00;46.44;102385.13;5006905;28;4022;-69
2023/05/27 07:36:53;;;;;;;;;;;;;;;21.00;46.50;102390.13;5008149;28;4101;-69
2023/05/27 07:39:20;;;;;;;;;;;;;;;21.01;46.61;102385.91;5005737;28;4116;-69
2023/05/27 07:41:46;;;;;;;;;;;;;;;20.99;46.92;102380.75;5000528;28;4065;-68
2023/05/27 07:44:13;;;;;;;;;;;;;;;20.73;45.46;102384.69;5001519;28;4121;-69
2023/05/27 07:46:40;;;;;;;;;;;;;;;20.82;45.31;102383.88;5002869;28;4179;-68
2023/05/27 07:49:06;;;;;;;;;;;;;;;20.90;46.12;102372.91;5004415;28;4176;-69
2023/05/27 07:51:39;;;;;;;;;;;;;;;20.93;46.61;102369.53;5005662;28;4508;-69
2023/05/27 07:54:06;;;;;;;;;;;;;;;21.03;46.83;102365.88;5000929;28;5457;-69
2023/05/27 07:56:34;;;;;;;;;;;;;;;21.08;46.56;102367.66;5004805;28;4075;-70
2023/05/27 07:59:01;;;;;;;;;;;;;;;21.15;46.55;102363.81;5001072;28;4269;-69
2023/05/27 08:01:32;;;;;;;;;;;;;;;20.96;45.85;102361.81;5006855;28;4130;-71
2023/05/27 08:03:59;;;;;;;;;;;;;;;20.29;40.45;102355.81;4997749;28;4481;-71
2023/05/27 08:06:46;;;;;;;;;;;;;;;20.24;39.88;102347.47;4997933;28;4478;-71
2023/05/27 08:09:35;;;;;;;;;;;;;;;20.42;39.37;102351.63;5000008;28;4183;-71
2023/05/27 08:12:19;;;;;;;;;;;;;;;20.34;38.84;102351.09;5000537;28;4090;-71
2023/05/27 08:15:04;;;;;;;;;;;;;;;20.33;38.30;102343.06;5004245;28;4181;-71
2023/05/27 08:17:43;;;;;;;;;;;;;;;20.35;37.95;102346.81;5001372;28;4044;-71
2023/05/27 08:20:26;;;;;;;;;;;;;;;20.27;36.59;102352.00;5002769;28;4255;-71
2023/05/27 08:23:15;;;;;;;;;;;;;;;20.33;35.18;102338.06;4999869;28;4133;-71
2023/05/27 08:25:50;;;;;;;;;;;;;;;20.29;34.01;102344.28;5012386;28;4117;-71
2023/05/27 08:28:26;;;;;;;;;;;;;;;20.28;33.90;102336.28;5009259;28;4302;-71
2023/05/27 08:31:01;;;;;;;;;;;;;;;20.28;33.83;102333.38;5007527;28;4217;-71
2023/05/27 08:33:35;;;;;;;;;;;;;;;20.28;33.59;102336.28;5013822;28;4090;-71
2023/05/27 08:36:02;;;;;;;;;;;;;;;20.21;33.15;102332.19;5006577;28;4453;-71
2023/05/27 08:38:29;;;;;;;;;;;;;;;20.22;33.24;102335.81;5002338;28;4383;-70
2023/05/27 08:41:10;;;;;;;;;;;;;;;20.17;33.38;102331.16;5004403;28;4159;-71
2023/05/27 08:43:37;;;;;;;;;;;;;;;20.15;32.82;102325.25;5002373;28;4229;-70
2023/05/27 08:46:04;;;;;;;;;;;;;;;20.32;32.30;102316.41;5006283;28;4481;-71
2023/05/27 08:48:31;;;;;;;;;;;;;;;20.53;35.12;102320.69;4995143;28;4122;-69
2023/05/27 08:50:59;;;;;;;;;;;;;;;20.75;36.44;102325.13;5011375;28;4123;-74
2023/05/27 08:53:25;;;;;;;;;;;;;;;20.85;37.30;102316.44;5004829;28;4110;-71
2023/05/27 08:55:52;;;;;;;;;;;;;;;20.86;38.37;102312.16;5002332;28;4368;-71
2023/05/27 08:58:19;;;;;;;;;;;;;;;20.87;39.13;102305.81;4988500;28;4142;-71
2023/05/27 09:00:48;;;;;;;;;;;;;;;20.93;39.59;102303.31;5005469;28;4349;-72
2023/05/27 09:03:17;;;;;;;;;;;;;;;20.92;39.78;102296.06;5011717;28;5416;-70
2023/05/27 09:05:44;;;;;;;;;;;;;;;20.88;40.33;102297.91;5013732;28;4209;-69
2023/05/27 09:08:11;;;;;;;;;;;;;;;20.89;40.23;102294.44;5008041;28;4068;-69
2023/05/27 09:10:38;;;;;;;;;;;;;;;20.91;41.09;102291.69;5008559;28;4193;-70
2023/05/27 09:13:05;;;;;;;;;;;;;;;20.93;41.08;102303.31;5016501;28;4043;-70
2023/05/27 09:15:31;;;;;;;;;;;;;;;20.95;41.31;102302.72;5011758;28;4586;-70
2023/05/27 09:17:58;;;;;;;;;;;;;;;20.95;41.83;102301.97;5007517;28;4217;-70
2023/05/27 09:20:29;;;;;;;;;;;;;;;20.96;41.88;102303.44;5008888;28;4139;-70
2023/05/27 09:23:03;;;;;;;;;;;;;;;20.97;42.00;102294.19;5010649;28;4123;-70
2023/05/27 09:25:29;;;;;;;;;;;;;;;20.98;42.54;102300.72;5011745;28;4141;-71
2023/05/27 09:27:56;;;;;;;;;;;;;;;21.06;42.93;102290.50;5013747;28;4983;-70
2023/05/27 09:30:22;;;;;;;;;;;;;;;21.06;43.13;102289.75;5016444;28;4048;-69
2023/05/27 09:32:49;;;;;;;;;;;;;;;21.06;43.58;102289.75;5016466;28;4113;-69
2023/05/27 09:35:16;;;;;;;;;;;;;;;21.05;43.63;102296.84;5008542;28;4052;-70
2023/05/27 09:37:43;;;;;;;;;;;;;;;21.07;44.19;102288.34;5012676;28;3940;-70
2023/05/27 09:40:10;;;;;;;;;;;;;;;21.08;44.29;102292.75;5005412;28;4173;-72
2023/05/27 09:42:43;;;;;;;;;;;;;;;21.11;44.38;102291.50;5012755;28;3981;-70
2023/05/27 09:45:13;;;;;;;;;;;;;;;21.13;44.63;102288.75;5008728;28;4048;-70
2023/05/27 09:47:40;;;;;;;;;;;;;;;21.14;44.81;102290.25;5009441;28;4058;-70
2023/05/27 09:50:07;;;;;;;;;;;;;;;21.14;45.21;102290.25;5005337;28;4158;-70
2023/05/27 09:52:34;;;;;;;;;;;;;;;21.14;45.35;102290.25;5013525;28;4075;-70
2023/05/27 09:55:11;;;;;;;;;;;;;;;21.17;45.28;102286.16;5012139;28;4161;-70
2023/05/27 09:57:37;;;;;;;;;;;;;;;21.16;45.39;102287.50;5010307;28;4029;-70
2023/05/27 10:00:15;;;;;;;;;;;;;;;21.19;45.48;102286.28;5010754;28;4068;-71
2023/05/27 10:02:42;;;;;;;;;;;;;;;21.21;45.35;102289.31;5015968;28;4108;-72
2023/05/27 10:05:12;;;;;;;;;;;;;;;21.20;45.41;102279.16;5002693;28;4121;-70
2023/05/27 10:07:39;;;;;;;;;;;;;;;21.16;45.84;102281.75;5013894;28;4239;-70
2023/05/27 10:10:20;;;;;;;;;;;;;;;21.21;45.84;102280.66;5010786;28;4125;-70
2023/05/27 10:12:47;;;;;;;;;;;;;;;21.21;45.62;102266.25;5012723;28;4179;-70
2023/05/27 10:15:29;;;;;;;;;;;;;;;21.22;45.66;102267.75;5005656;28;4285;-69
2023/05/27 10:17:56;;;;;;;;;;;;;;;21.22;45.81;102259.13;5010799;28;4520;-70
2023/05/27 10:20:32;;;;;;;;;;;;;;;21.24;45.95;102262.13;5007988;28;4206;-70
2023/05/27 10:23:12;;;;;;;;;;;;;;;21.26;45.76;102262.28;5006737;28;5039;-70
2023/05/27 10:25:39;;;;;;;;;;;;;;;21.26;45.99;102253.63;5007321;28;4162;-70
2023/05/27 10:28:05;;;;;;;;;;;;;;;21.28;45.96;102252.97;5007433;28;4134;-70
2023/05/27 10:30:42;;;;;;;;;;;;;;;21.28;46.18;102248.00;5006186;28;4295;-71
2023/05/27 10:33:08;;;;;;;;;;;;;;;21.29;46.00;102252.38;5009372;28;4053;-70
2023/05/27 10:35:38;;;;;;;;;;;;;;;21.28;46.26;102247.22;5010866;28;4084;-70
2023/05/27 10:38:13;;;;;;;;;;;;;;;21.29;46.29;102246.59;5002842;28;4040;-70
2023/05/27 10:40:39;;;;;;;;;;;;;;;21.29;46.56;102237.97;5005952;28;4151;-71
2023/05/27 10:43:06;;;;;;;;;;;;;;;21.30;46.70;102238.72;5013624;28;4651;-70
2023/05/27 10:45:33;;;;;;;;;;;;;;;21.30;46.59;102232.94;5009951;28;4069;-70
2023/05/27 10:48:00;;;;;;;;;;;;;;;21.30;46.68;102230.84;5009270;28;4107;-70
2023/05/27 10:50:34;;;;;;;;;;;;;;;21.31;46.80;102235.22;5008542;28;4289;-70
2023/05/27 10:53:01;;;;;;;;;;;;;;;21.34;46.71;102233.22;5007560;28;4057;-70
2023/05/27 10:55:27;;;;;;;;;;;;;;;21.31;46.89;102234.47;5009331;28;4278;-70
2023/05/27 10:57:54;;;;;;;;;;;;;;;21.32;47.02;102225.19;5009320;28;4148;-70
2023/05/27 11:00:20;;;;;;;;;;;;;;;21.34;47.00;102228.19;5008802;28;4104;-69
2023/05/27 11:02:47;;;;;;;;;;;;;;;21.33;47.10;102215.19;5007341;28;4020;-70
2023/05/27 11:05:13;;;;;;;;;;;;;;;21.36;47.11;102218.94;5004342;28;4026;-69
2023/05/27 11:07:40;;;;;;;;;;;;;;;21.38;47.17;102218.31;5009228;28;4029;-70
2023/05/27 11:10:07;;;;;;;;;;;;;;;21.37;47.26;102213.91;5009233;28;4099;-69
2023/05/27 11:12:34;;;;;;;;;;;;;;;21.37;47.51;102208.16;5005836;28;3948;-69
2023/05/27 11:15:00;;;;;;;;;;;;;;;21.37;47.43;102205.28;5005293;28;4121;-70
2023/05/27 11:17:27;;;;;;;;;;;;;;;21.38;47.42;102192.38;5008471;28;4041;-69
2023/05/27 11:19:53;;;;;;;;;;;;;;;21.37;47.47;102196.63;5008831;28;4226;-69
2023/05/27 11:22:20;;;;;;;;;;;;;;;21.39;47.72;102196.75;5005733;28;4146;-69
2023/05/27 11:24:59;;;;;;;;;;;;;;;21.40;47.39;102192.53;5017165;28;4094;-70
2023/05/27 11:27:35;;;;;;;;;;;;;;;21.42;47.45;102184.03;5015454;28;4149;-69
2023/05/27 11:30:09;;;;;;;;;;;;;;;21.42;47.63;102175.38;5008587;28;4432;-70
2023/05/27 11:32:36;;;;;;;;;;;;;;;21.44;47.67;102189.91;5009531;28;4191;-70
2023/05/27 11:35:02;;;;;;;;;;;;;;;21.43;47.74;102180.50;5008995;28;3987;-70
2023/05/27 11:37:33;;;;;;;;;;;;;;;21.42;48.04;102178.28;5006433;28;3993;-69
2023/05/27 11:40:00;;;;;;;;;;;;;;;21.43;48.19;102176.88;5006738;28;4276;-70
2023/05/27 11:42:27;;;;;;;;;;;;;;;21.46;48.18;102169.84;5012726;28;4206;-72
2023/05/27 11:44:54;;;;;;;;;;;;;;;21.47;48.10;102174.25;5009914;28;4362;-76
2023/05/27 11:47:21;;;;;;;;;;;;;;;21.45;48.12;102162.59;5007462;28;4155;-76
2023/05/27 11:49:48;;;;;;;;;;;;;;;21.46;48.22;102166.97;5007894;28;4240;-76
2023/05/27 11:52:14;;;;;;;;;;;;;;;21.48;48.80;102164.22;5003802;28;4060;-74
2023/05/27 11:54:41;;;;;;;;;;;;;;;21.50;48.61;102164.34;5011300;28;3972;-74
2023/05/27 11:57:16;;;;;;;;;;;;;;;21.50;48.71;102153.56;5008185;28;4122;-76
2023/05/27 11:59:42;;;;;;;;;;;;;;;21.51;48.79;102151.47;5009418;28;4225;-75
2023/05/27 12:02:09;;;;;;;;;;;;;;;21.52;49.03;102150.06;5004703;28;4016;-75
2023/05/27 12:04:36;;;;;;;;;;;;;;;21.50;49.21;102149.94;5006817;28;4593;-75
2023/05/27 12:07:02;;;;;;;;;;;;;;;21.53;49.26;102142.91;5003716;28;4216;-74
2023/05/27 12:09:44;;;;;;;;;;;;;;;21.52;49.85;102132.78;5015442;28;4086;-75
2023/05/27 12:12:10;;;;;;;;;;;;;;;21.54;49.69;102130.78;5004379;28;4023;-75
2023/05/27 12:14:37;;;;;;;;;;;;;;;21.52;49.91;102127.75;5009599;28;4110;-75
2023/05/27 12:17:03;;;;;;;;;;;;;;;21.53;50.02;102128.50;5007049;28;4117;-74
2023/05/27 12:19:34;;;;;;;;;;;;;;;21.53;50.38;102119.88;5007942;28;4147;-75
2023/05/27 12:22:00;;;;;;;;;;;;;;;21.55;50.43;102120.00;5005396;28;4146;-74
2023/05/27 12:24:26;;;;;;;;;;;;;;;21.59;50.13;102128.91;5002335;28;4091;-74
2023/05/27 12:26:53;;;;;;;;;;;;;;;21.59;50.44;102113.72;5007515;28;3980;-74
2023/05/27 12:29:21;;;;;;;;;;;;;;;21.60;50.96;102116.00;5007643;28;4036;-75
2023/05/27 12:31:47;;;;;;;;;;;;;;;21.59;51.14;102117.38;5007790;28;3973;-75
2023/05/27 12:34:14;;;;;;;;;;;;;;;21.62;50.94;102106.72;5005328;28;4085;-74
2023/05/27 12:36:40;;;;;;;;;;;;;;;21.60;51.38;102116.00;5014783;28;4024;-75
2023/05/27 12:39:07;;;;;;;;;;;;;;;21.60;51.49;102107.34;5008723;28;4310;-76
2023/05/27 12:41:33;;;;;;;;;;;;;;;21.63;51.10;102108.22;5009901;28;4073;-75
2023/05/27 12:44:00;;;;;;;;;;;;;;;21.63;51.30;102105.34;5011351;28;4133;-74
2023/05/27 12:46:26;;;;;;;;;;;;;;;21.63;51.48;102090.94;5006212;28;5235;-76
2023/05/27 12:48:53;;;;;;;;;;;;;;;21.67;51.04;102091.94;5013184;28;4085;-76
2023/05/27 12:51:19;;;;;;;;;;;;;;;21.66;51.29;102081.75;5011121;28;4241;-77
2023/05/27 12:53:45;;;;;;;;;;;;;;;21.68;51.12;102076.13;5015861;28;4137;-76
2023/05/27 12:56:12;;;;;;;;;;;;;;;21.66;51.02;102083.91;5013628;28;4317;-77